createdAt,value
2022-12-13T00:02:25.948Z,96407.00
2022-12-13T00:04:52.336Z,96400.94
2022-12-13T00:07:18.686Z,96397.25
2022-12-13T00:09:45.076Z,96396.09
2022-12-13T00:12:11.400Z,96400.94
2022-12-13T00:14:37.754Z,96394.75
2022-12-13T00:17:04.097Z,96396.97
2022-12-13T00:19:30.439Z,96397.16
2022-12-13T00:21:56.837Z,96390.75
2022-12-13T00:24:23.240Z,96384.34
2022-12-13T00:26:49.555Z,96392.50
2022-12-13T00:29:15.966Z,96395.59
2022-12-13T00:34:29.181Z,96393.97
2022-12-13T00:36:55.909Z,96387.19
2022-12-13T00:39:22.263Z,96382.88
2022-12-13T00:41:48.581Z,96386.38
2022-12-13T00:44:15.139Z,96388.91
2022-12-13T00:46:42.062Z,96389.78
2022-12-13T00:49:10.239Z,96382.38
2022-12-13T00:51:36.686Z,96382.81
2022-12-13T00:54:03.329Z,96380.44
2022-12-13T00:56:31.156Z,96378.69
2022-12-13T00:58:57.976Z,96377.00
2022-12-13T01:01:26.191Z,96377.00
2022-12-13T01:03:56.682Z,96375.34
2022-12-13T01:06:43.422Z,96380.50
2022-12-13T01:09:14.417Z,96386.41
2022-12-13T01:11:40.769Z,96386.56
2022-12-13T01:14:07.219Z,96377.66
2022-12-13T01:16:33.650Z,96382.13
2022-12-13T01:19:00.212Z,96380.56
2022-12-13T01:21:26.564Z,96382.88
2022-12-13T01:23:53.091Z,96373.00
2022-12-13T01:26:20.573Z,96378.22
2022-12-13T01:28:47.267Z,96370.34
2022-12-13T01:31:15.312Z,96369.09
2022-12-13T01:33:42.054Z,96376.19
2022-12-13T01:36:10.828Z,96375.66
2022-12-13T01:38:38.019Z,96372.38
2022-12-13T01:41:17.016Z,96375.38
2022-12-13T01:43:46.868Z,96375.38
2022-12-13T01:46:13.911Z,96366.31
2022-12-13T01:48:44.464Z,96366.19
2022-12-13T01:51:12.519Z,96366.06
2022-12-13T01:53:40.622Z,96369.13
2022-12-13T01:56:09.904Z,96365.03
2022-12-13T01:58:36.932Z,96366.38
2022-12-13T02:01:03.402Z,96368.06
2022-12-13T02:03:29.828Z,96362.31
2022-12-13T02:06:08.024Z,96365.03
2022-12-13T02:08:36.105Z,96356.97
2022-12-13T02:11:03.235Z,96357.47
2022-12-13T02:13:29.539Z,96350.41
2022-12-13T02:16:22.109Z,96350.16
2022-12-13T02:19:08.216Z,96348.09
2022-12-13T02:22:04.596Z,96347.50
2022-12-13T02:24:46.315Z,96337.31
2022-12-13T02:27:12.703Z,96338.44
2022-12-13T02:29:39.057Z,96335.66
2022-12-13T02:32:06.159Z,96333.34
2022-12-13T02:34:45.918Z,96329.09
2022-12-13T02:37:23.811Z,96339.88
2022-12-13T02:39:55.206Z,96333.84
2022-12-13T02:42:41.772Z,96331.44
2022-12-13T02:45:08.245Z,96338.25
2022-12-13T02:47:35.773Z,96333.63
2022-12-13T02:50:04.122Z,96332.88
2022-12-13T02:52:31.816Z,96329.03
2022-12-13T02:54:58.745Z,96330.06
2022-12-13T02:57:29.956Z,96325.31
2022-12-13T02:59:57.729Z,96327.22
2022-12-13T03:02:31.163Z,96323.81
2022-12-13T03:05:29.824Z,96320.56
2022-12-13T03:08:03.886Z,96327.44
2022-12-13T03:10:37.775Z,96329.59
2022-12-13T03:13:27.682Z,96325.41
2022-12-13T03:15:57.850Z,96329.84
2022-12-13T03:18:26.351Z,96329.63
2022-12-13T03:20:55.927Z,96333.16
2022-12-13T03:23:22.555Z,96333.81
2022-12-13T03:25:50.994Z,96327.09
2022-12-13T03:28:18.558Z,96327.69
2022-12-13T03:30:44.940Z,96327.44
2022-12-13T03:33:11.505Z,96319.75
2022-12-13T03:35:44.892Z,96315.16
2022-12-13T03:38:12.828Z,96313.75
2022-12-13T03:40:49.282Z,96323.28
2022-12-13T03:43:15.679Z,96325.56
2022-12-13T03:45:48.981Z,96328.53
2022-12-13T03:48:22.115Z,96324.91
2022-12-13T03:50:50.125Z,96331.69
2022-12-13T03:53:22.470Z,96323.88
2022-12-13T03:55:58.858Z,96327.34
2022-12-13T03:58:27.455Z,96320.56
2022-12-13T04:01:03.337Z,96318.22
2022-12-13T04:03:29.715Z,96317.31
2022-12-13T04:05:56.122Z,96316.50
2022-12-13T04:08:22.806Z,96310.88
2022-12-13T04:10:49.234Z,96314.59
2022-12-13T04:13:33.661Z,96312.56
2022-12-13T04:16:02.771Z,96309.41
2022-12-13T04:18:29.300Z,96309.03
2022-12-13T04:20:57.341Z,96304.41
2022-12-13T04:23:23.750Z,96294.56
2022-12-13T04:25:50.083Z,96294.41
2022-12-13T04:28:22.370Z,96298.81
2022-12-13T04:30:53.517Z,96283.00
2022-12-13T04:33:21.156Z,96285.88
2022-12-13T04:35:47.875Z,96289.94
2022-12-13T04:38:14.504Z,96289.41
2022-12-13T04:40:40.824Z,96282.81
2022-12-13T04:43:07.237Z,96285.22
2022-12-13T04:45:33.918Z,96284.97
2022-12-13T04:48:00.292Z,96280.78
2022-12-13T04:50:27.695Z,96277.97
2022-12-13T04:52:54.020Z,96278.31
2022-12-13T04:55:20.473Z,96285.16
2022-12-13T04:57:46.815Z,96284.66
2022-12-13T05:00:13.534Z,96280.44
2022-12-13T05:02:41.590Z,96273.00
2022-12-13T05:05:11.273Z,96284.44
2022-12-13T05:07:42.023Z,96281.22
2022-12-13T05:10:09.737Z,96275.00
2022-12-13T05:12:36.107Z,96270.44
2022-12-13T05:15:03.592Z,96268.03
2022-12-13T05:17:29.928Z,96274.06
2022-12-13T05:19:56.250Z,96282.41
2022-12-13T05:22:22.634Z,96285.41
2022-12-13T05:24:49.193Z,96285.09
2022-12-13T05:27:25.647Z,96278.84
2022-12-13T05:30:03.834Z,96285.06
2022-12-13T05:32:33.880Z,96284.44
2022-12-13T05:35:10.722Z,96282.16
2022-12-13T05:37:37.129Z,96281.63
2022-12-13T05:40:04.180Z,96272.28
2022-12-13T05:42:30.495Z,96282.50
2022-12-13T05:44:56.848Z,96290.53
2022-12-13T05:47:23.198Z,96286.81
2022-12-13T05:49:49.603Z,96287.91
2022-12-13T05:52:19.847Z,96289.50
2022-12-13T05:54:46.248Z,96291.19
2022-12-13T05:57:12.564Z,96287.16
2022-12-13T05:59:39.099Z,96286.00
2022-12-13T06:02:05.564Z,96283.88
2022-12-13T06:04:31.976Z,96280.66
2022-12-13T06:06:58.375Z,96279.88
2022-12-13T06:09:24.823Z,96282.50
2022-12-13T06:11:51.239Z,96282.50
2022-12-13T06:14:21.517Z,96274.75
2022-12-13T06:16:49.370Z,96280.09
2022-12-13T06:19:15.718Z,96273.50
2022-12-13T06:21:46.204Z,96277.78
2022-12-13T06:24:14.135Z,96278.34
2022-12-13T06:26:40.448Z,96280.19
2022-12-13T06:29:06.884Z,96282.84
2022-12-13T06:31:33.248Z,96275.47
2022-12-13T06:34:14.769Z,96275.25
2022-12-13T06:36:42.999Z,96274.34
2022-12-13T06:39:09.414Z,96280.72
2022-12-13T06:41:36.859Z,96277.69
2022-12-13T06:44:03.420Z,96286.47
2022-12-13T06:46:29.844Z,96287.44
2022-12-13T06:48:56.872Z,96286.69
2022-12-13T06:51:23.319Z,96287.50
2022-12-13T06:54:00.891Z,96278.19
2022-12-13T06:56:27.664Z,96285.03
2022-12-13T06:58:54.036Z,96281.81
2022-12-13T07:01:28.246Z,96272.06
2022-12-13T07:04:03.665Z,96282.91
2022-12-13T07:06:29.994Z,96276.84
2022-12-13T07:08:57.345Z,96271.03
2022-12-13T07:11:27.147Z,96274.94
2022-12-13T07:13:53.924Z,96277.41
2022-12-13T07:16:20.886Z,96266.78
2022-12-13T07:18:47.567Z,96265.53
2022-12-13T07:21:22.008Z,96271.31
2022-12-13T07:23:55.554Z,96272.56
2022-12-13T07:26:22.230Z,96273.03
2022-12-13T07:28:54.533Z,96270.09
2022-12-13T07:31:21.899Z,96272.03
2022-12-13T07:33:48.800Z,96264.06
2022-12-13T07:36:16.671Z,96277.72
2022-12-13T07:38:43.488Z,96267.69
2022-12-13T07:41:11.738Z,96260.84
2022-12-13T07:43:38.128Z,96270.66
2022-12-13T07:46:05.886Z,96273.72
2022-12-13T07:48:33.261Z,96276.38
2022-12-13T07:51:03.811Z,96271.56
2022-12-13T07:53:33.436Z,96275.47
2022-12-13T07:56:07.885Z,96273.25
2022-12-13T07:58:34.316Z,96262.94
2022-12-13T08:01:01.698Z,96260.47
2022-12-13T08:03:28.877Z,96255.59
2022-12-13T08:06:04.420Z,96267.16
2022-12-13T08:08:32.443Z,96262.13
2022-12-13T08:11:02.699Z,96263.63
2022-12-13T08:13:29.136Z,96259.50
2022-12-13T08:16:00.371Z,96266.47
2022-12-13T08:18:27.244Z,96259.19
2022-12-13T08:20:57.233Z,96268.09
2022-12-13T08:23:23.906Z,96269.63
2022-12-13T08:25:51.785Z,96266.47
2022-12-13T08:28:18.434Z,96269.50
2022-12-13T08:30:44.758Z,96270.44
2022-12-13T08:33:11.100Z,96266.09
2022-12-13T08:35:37.573Z,96270.13
2022-12-13T08:38:04.073Z,96270.28
2022-12-13T08:40:30.464Z,96270.75
2022-12-13T08:42:58.042Z,96274.75
2022-12-13T08:45:24.389Z,96271.00
2022-12-13T08:47:50.767Z,96271.81
2022-12-13T08:50:17.142Z,96274.13
2022-12-13T08:52:44.912Z,96276.03
2022-12-13T08:55:15.058Z,96271.78
2022-12-13T08:57:42.601Z,96281.28
2022-12-13T09:00:11.567Z,96275.06
2022-12-13T09:02:38.907Z,96272.53
2022-12-13T09:05:07.225Z,96282.38
2022-12-13T09:07:35.862Z,96282.78
2022-12-13T09:10:25.269Z,96288.19
2022-12-13T09:12:48.940Z,96293.44
2022-12-13T09:15:21.938Z,96288.50
2022-12-13T09:17:52.444Z,96291.13
2022-12-13T09:20:28.760Z,96297.38
2022-12-13T09:23:01.250Z,96291.84
2022-12-13T09:25:29.036Z,96286.69
2022-12-13T09:28:05.637Z,96283.06
2022-12-13T09:30:32.090Z,96271.69
2022-12-13T09:32:59.570Z,96265.69
2022-12-13T09:35:45.941Z,96258.31
2022-12-13T09:38:13.474Z,96253.06
2022-12-13T09:40:40.912Z,96249.59
2022-12-13T09:43:12.539Z,96247.22
2022-12-13T09:45:43.285Z,96247.00
2022-12-13T09:48:22.172Z,96246.69
2022-12-13T09:50:57.966Z,96237.13
2022-12-13T09:53:25.634Z,96242.09
2022-12-13T09:56:10.417Z,96234.88
2022-12-13T09:58:37.489Z,96235.72
2022-12-13T10:01:05.093Z,96231.38
2022-12-13T10:03:31.574Z,96229.13
2022-12-13T10:05:59.529Z,96222.00
2022-12-13T10:08:33.426Z,96210.09
2022-12-13T10:10:59.788Z,96219.00
2022-12-13T10:13:41.627Z,96221.84
2022-12-13T10:16:12.750Z,96214.94
2022-12-13T10:18:41.093Z,96219.09
2022-12-13T10:21:16.785Z,96219.63
2022-12-13T10:24:22.708Z,96223.47
2022-12-13T10:26:35.360Z,96222.91
2022-12-13T10:29:05.402Z,96217.59
2022-12-13T10:31:39.051Z,96223.28
2022-12-13T10:34:05.472Z,96220.31
2022-12-13T10:36:33.991Z,96212.53
2022-12-13T10:39:00.887Z,96210.69
2022-12-13T10:41:29.313Z,96215.72
2022-12-13T10:44:14.865Z,96211.09
2022-12-13T10:46:50.606Z,96214.91
2022-12-13T10:49:18.340Z,96209.22
2022-12-13T10:51:45.503Z,96223.00
2022-12-13T10:54:15.953Z,96223.00
2022-12-13T10:56:47.910Z,96229.88
2022-12-13T10:59:23.245Z,96230.53
2022-12-13T11:01:49.608Z,96229.78
2022-12-13T11:04:27.970Z,96223.22
2022-12-13T11:06:54.640Z,96216.47
2022-12-13T11:09:28.871Z,96207.28
2022-12-13T11:11:58.246Z,96201.97
2022-12-13T11:14:32.154Z,96200.06
2022-12-13T11:17:00.996Z,96197.13
2022-12-13T11:19:31.174Z,96196.25
2022-12-13T11:21:57.944Z,96206.38
2022-12-13T11:24:25.909Z,96199.00
2022-12-13T11:27:10.325Z,96204.34
2022-12-13T11:29:44.488Z,96199.66
2022-12-13T11:32:32.527Z,96189.22
2022-12-13T11:35:19.125Z,96185.91
2022-12-13T11:37:51.134Z,96181.19
2022-12-13T11:40:21.476Z,96181.63
2022-12-13T11:42:55.795Z,96184.41
2022-12-13T11:45:26.103Z,96179.56
2022-12-13T11:48:03.241Z,96175.91
2022-12-13T11:50:48.799Z,96165.03
2022-12-13T11:53:26.704Z,96151.91
2022-12-13T11:55:53.388Z,96160.88
2022-12-13T12:01:19.536Z,96142.06
2022-12-13T12:03:51.574Z,96142.81
2022-12-13T12:06:17.915Z,96150.69
2022-12-13T12:08:53.402Z,96146.41
2022-12-13T12:11:31.713Z,96143.50
2022-12-13T12:14:05.909Z,96144.22
2022-12-13T12:16:51.161Z,96133.81
2022-12-13T12:19:19.974Z,96129.72
2022-12-13T12:22:13.587Z,96133.34
2022-12-13T12:24:46.669Z,96128.41
2022-12-13T12:27:22.828Z,96121.84
2022-12-13T12:30:08.460Z,96132.19
2022-12-13T12:32:53.714Z,96131.31
2022-12-13T12:35:22.842Z,96138.56
2022-12-13T12:37:52.056Z,96140.88
2022-12-13T12:41:07.274Z,96136.50
2022-12-13T12:43:30.588Z,96136.16
2022-12-13T12:46:00.149Z,96135.06
2022-12-13T12:51:25.761Z,96132.09
2022-12-13T12:54:03.741Z,96132.09
2022-12-13T12:56:33.588Z,96132.47
2022-12-13T12:59:19.691Z,96118.28
2022-12-13T13:01:53.683Z,96118.72
2022-12-13T13:04:23.382Z,96118.75
2022-12-13T13:07:25.327Z,96118.28
2022-12-13T13:09:54.637Z,96122.19
2022-12-13T13:12:29.377Z,96123.97
2022-12-13T13:14:57.324Z,96122.06
2022-12-13T13:17:23.604Z,96135.09
2022-12-13T13:20:01.424Z,96137.81
2022-12-13T13:22:43.443Z,96139.91
2022-12-13T13:25:13.919Z,96148.81
2022-12-13T13:27:41.631Z,96145.31
2022-12-13T13:30:28.371Z,96143.53
2022-12-13T13:32:55.928Z,96137.16
2022-12-13T13:35:28.620Z,96139.44
2022-12-13T13:37:55.466Z,96139.47
2022-12-13T13:40:30.522Z,96139.53
2022-12-13T13:43:06.657Z,96130.28
2022-12-13T13:45:51.290Z,96142.13
2022-12-13T13:48:37.132Z,96136.16
2022-12-13T13:51:22.221Z,96142.25
2022-12-13T13:54:03.867Z,96138.97
2022-12-13T13:56:36.305Z,96154.69
2022-12-13T13:59:11.472Z,96155.63
2022-12-13T14:01:44.484Z,96150.00
2022-12-13T14:04:34.050Z,96146.03
2022-12-13T14:07:24.993Z,96143.91
2022-12-13T14:10:17.122Z,96140.97
2022-12-13T14:12:43.416Z,96147.16
2022-12-13T14:15:29.767Z,96140.81
2022-12-13T14:18:21.723Z,96139.19
2022-12-13T14:21:01.058Z,96141.06
2022-12-13T14:23:28.550Z,96135.44
2022-12-13T14:26:01.928Z,96124.41
2022-12-13T14:28:46.971Z,96130.41
2022-12-13T14:31:20.107Z,96127.47
2022-12-13T14:33:49.782Z,96122.72
2022-12-13T14:36:17.667Z,96119.78
2022-12-13T14:38:44.641Z,96123.91
2022-12-13T14:41:16.415Z,96122.16
2022-12-13T14:43:48.472Z,96117.91
2022-12-13T14:46:16.640Z,96113.44
2022-12-13T14:48:48.325Z,96111.19
2022-12-13T14:51:31.337Z,96107.16
2022-12-13T14:53:58.608Z,96107.91
2022-12-13T15:03:24.133Z,96112.00
2022-12-13T15:05:57.952Z,96114.50
2022-12-13T15:08:24.848Z,96115.31
2022-12-13T15:10:53.678Z,96111.00
2022-12-13T15:13:29.847Z,96112.25
2022-12-13T15:16:01.746Z,96113.72
2022-12-13T15:18:36.423Z,96116.38
2022-12-13T15:21:02.973Z,96108.88
2022-12-13T15:23:41.721Z,96102.78
2022-12-13T15:26:27.997Z,96115.47
2022-12-13T15:29:10.128Z,96122.94
2022-12-13T15:31:37.859Z,96122.88
2022-12-13T15:34:34.626Z,96123.28
2022-12-13T15:37:06.852Z,96124.41
2022-12-13T15:39:37.960Z,96128.41
2022-12-13T15:42:04.640Z,96133.75
2022-12-13T15:44:39.398Z,96138.28
2022-12-13T15:47:13.231Z,96130.06
2022-12-13T15:49:56.778Z,96133.34
2022-12-13T15:52:36.171Z,96144.31
2022-12-13T15:55:05.290Z,96129.53
2022-12-13T15:57:33.916Z,96130.56
2022-12-13T16:00:08.516Z,96127.66
2022-12-13T16:02:37.848Z,96125.63
2022-12-13T16:05:09.459Z,96126.81
2022-12-13T16:07:38.135Z,96120.84
2022-12-13T16:10:05.266Z,96121.84
2022-12-13T16:12:39.765Z,96127.59
2022-12-13T16:15:28.795Z,96123.06
2022-12-13T16:18:05.617Z,96118.53
2022-12-13T16:20:32.156Z,96117.09
2022-12-13T16:22:59.953Z,96114.13
2022-12-13T16:25:26.850Z,96114.53
2022-12-13T16:27:53.321Z,96122.03
2022-12-13T16:30:22.710Z,96116.47
2022-12-13T16:35:37.563Z,96102.91
2022-12-13T16:38:09.403Z,96110.00
2022-12-13T16:40:36.111Z,96101.91
2022-12-13T16:43:04.088Z,96100.53
2022-12-13T16:45:47.277Z,96090.69
2022-12-13T16:48:14.409Z,96089.50
2022-12-13T16:50:45.055Z,96095.97
2022-12-13T16:53:17.068Z,96101.78
2022-12-13T16:55:45.643Z,96095.47
2022-12-13T16:58:25.953Z,96105.28
2022-12-13T17:00:52.488Z,96101.19
2022-12-13T17:03:26.034Z,96103.97
2022-12-13T17:05:58.718Z,96100.94
2022-12-13T17:08:25.573Z,96111.16
2022-12-13T17:10:58.241Z,96102.44
2022-12-13T17:13:25.566Z,96105.75
2022-12-13T17:15:59.575Z,96111.53
2022-12-13T17:18:26.453Z,96116.66
2022-12-13T17:20:53.818Z,96111.88
2022-12-13T17:23:25.002Z,96109.31
2022-12-13T17:25:58.722Z,96105.19
2022-12-13T17:28:25.449Z,96097.91
2022-12-13T17:30:54.632Z,96100.84
2022-12-13T17:33:21.748Z,96104.50
2022-12-13T17:35:48.207Z,96105.50
2022-12-13T17:38:14.671Z,96091.31
2022-12-13T17:40:41.068Z,96102.19
2022-12-13T17:43:07.732Z,96095.06
2022-12-13T17:45:34.304Z,96095.06
2022-12-13T17:48:00.654Z,96091.84
2022-12-13T17:50:28.073Z,96093.50
2022-12-13T17:52:54.409Z,96103.47
2022-12-13T17:55:20.753Z,96090.59
2022-12-13T17:57:47.243Z,96099.53
2022-12-13T18:00:14.060Z,96088.75
2022-12-13T18:02:41.665Z,96092.88
2022-12-13T18:05:25.096Z,96083.00
2022-12-13T18:07:51.591Z,96085.94
2022-12-13T18:10:17.943Z,96079.91
2022-12-13T18:12:45.665Z,96075.97
2022-12-13T18:15:12.047Z,96080.44
2022-12-13T18:18:09.568Z,96066.91
2022-12-13T18:20:25.111Z,96075.50
2022-12-13T18:22:52.516Z,96073.13
2022-12-13T18:25:19.863Z,96073.41
2022-12-13T18:27:47.149Z,96080.16
2022-12-13T18:30:13.628Z,96064.81
2022-12-13T18:32:43.014Z,96058.06
2022-12-13T18:35:09.511Z,96059.31
2022-12-13T18:37:35.848Z,96060.78
2022-12-13T18:40:04.874Z,96061.88
2022-12-13T18:42:31.253Z,96064.81
2022-12-13T18:44:57.612Z,96063.53
2022-12-13T18:47:25.832Z,96074.41
2022-12-13T18:49:55.010Z,96065.72
2022-12-13T18:52:23.699Z,96063.34
2022-12-13T18:54:54.460Z,96058.13
2022-12-13T18:57:21.745Z,96051.56
2022-12-13T18:59:54.443Z,96050.53
2022-12-13T19:02:21.788Z,96058.97
2022-12-13T19:04:54.848Z,96062.41
2022-12-13T19:07:22.138Z,96056.03
2022-12-13T19:09:54.957Z,96067.13
2022-12-13T19:12:21.510Z,96063.88
2022-12-13T19:14:54.811Z,96063.88
2022-12-13T19:17:21.722Z,96083.25
2022-12-13T19:19:49.121Z,96093.19
2022-12-13T19:22:15.975Z,96095.97
2022-12-13T19:24:42.452Z,96085.09
2022-12-13T19:27:08.883Z,96084.25
2022-12-13T19:29:35.212Z,96077.56
2022-12-13T19:32:01.676Z,96089.06
2022-12-13T19:34:28.076Z,96101.31
2022-12-13T19:36:54.468Z,96097.66
2022-12-13T19:39:20.923Z,96094.63
2022-12-13T19:41:47.261Z,96077.38
2022-12-13T19:44:13.740Z,96078.75
2022-12-13T19:46:40.216Z,96068.06
2022-12-13T19:49:06.642Z,96067.78
2022-12-13T19:51:38.988Z,96057.84
2022-12-13T19:54:06.399Z,96054.25
2022-12-13T19:56:32.793Z,96060.41
2022-12-13T19:58:59.236Z,96058.75
2022-12-13T20:01:25.783Z,96062.47
2022-12-13T20:03:52.247Z,96060.66
2022-12-13T20:06:22.094Z,96063.41
2022-12-13T20:08:48.861Z,96051.44
2022-12-13T20:11:17.178Z,96052.34
2022-12-13T20:13:43.694Z,96046.63
2022-12-13T20:16:14.922Z,96043.13
2022-12-13T20:18:41.334Z,96043.38
2022-12-13T20:21:13.222Z,96028.06
2022-12-13T20:23:41.213Z,96018.38
2022-12-13T20:26:09.189Z,96011.25
2022-12-13T20:28:35.537Z,96008.44
2022-12-13T20:31:02.880Z,96014.72
2022-12-13T20:33:30.357Z,96013.09
2022-12-13T20:36:23.559Z,96013.09
2022-12-13T20:38:48.083Z,96011.88
2022-12-13T20:41:14.933Z,96010.00
2022-12-13T20:43:42.782Z,96007.06
2022-12-13T20:46:10.920Z,96000.09
2022-12-13T20:48:38.530Z,95987.50
2022-12-13T20:51:05.923Z,95991.16
2022-12-13T20:53:33.161Z,95989.31
2022-12-13T20:55:59.676Z,96003.50
2022-12-13T20:58:26.437Z,95992.97
2022-12-13T21:00:53.222Z,95983.88
2022-12-13T21:03:19.916Z,95991.41
2022-12-13T21:05:46.635Z,95994.25
2022-12-13T21:08:32.609Z,95983.88
2022-12-13T21:11:19.461Z,95988.69
2022-12-13T21:13:49.757Z,95985.22
2022-12-13T21:16:16.612Z,95988.13
2022-12-13T21:18:42.976Z,95986.97
2022-12-13T21:21:09.845Z,95984.66
2022-12-13T21:23:36.453Z,95978.47
2022-12-13T21:26:03.190Z,95987.03
2022-12-13T21:28:29.652Z,95973.25
2022-12-13T21:31:03.216Z,95970.59
2022-12-13T21:33:30.225Z,95970.97
2022-12-13T21:35:56.822Z,95965.19
2022-12-13T21:38:23.282Z,95971.78
2022-12-13T21:40:50.162Z,95976.91
2022-12-13T21:43:17.473Z,95961.94
2022-12-13T21:45:44.909Z,95956.97
2022-12-13T21:48:11.345Z,95954.50
2022-12-13T21:50:37.713Z,95939.72
2022-12-13T21:53:06.346Z,95945.31
2022-12-13T21:55:41.480Z,95941.19
2022-12-13T21:58:27.785Z,95946.00
2022-12-13T22:00:54.337Z,95937.69
2022-12-13T22:03:20.774Z,95942.75
2022-12-13T22:05:47.092Z,95927.91
2022-12-13T22:08:13.409Z,95925.84
2022-12-13T22:10:59.926Z,95927.41
2022-12-13T22:13:26.261Z,95931.69
2022-12-13T22:15:52.689Z,95928.03
2022-12-13T22:18:21.175Z,95931.41
2022-12-13T22:20:55.165Z,95939.38
2022-12-13T22:23:21.501Z,95945.81
2022-12-13T22:25:47.976Z,95941.69
2022-12-13T22:28:15.358Z,95931.72
2022-12-13T22:30:41.869Z,95933.00
2022-12-13T22:33:08.884Z,95938.94
2022-12-13T22:35:37.237Z,95933.00
2022-12-13T22:38:03.639Z,95934.72
2022-12-13T22:40:30.147Z,95923.13
2022-12-13T22:42:56.805Z,95920.94
2022-12-13T22:45:23.128Z,95931.34
2022-12-13T22:47:49.522Z,95933.81
2022-12-13T22:50:16.562Z,95925.38
2022-12-13T22:52:43.054Z,95922.25
2022-12-13T22:55:09.612Z,95915.22
2022-12-13T22:57:35.965Z,95913.56
2022-12-13T23:00:02.373Z,95911.81
2022-12-13T23:02:28.821Z,95911.34
2022-12-13T23:04:55.295Z,95907.78
2022-12-13T23:07:21.838Z,95896.09
2022-12-13T23:09:48.244Z,95886.69
2022-12-13T23:12:33.478Z,95878.66
2022-12-13T23:14:59.796Z,95881.56
2022-12-13T23:17:26.161Z,95876.06
2022-12-13T23:19:53.355Z,95867.03
2022-12-13T23:22:24.269Z,95864.13
2022-12-13T23:24:51.415Z,95869.25
2022-12-13T23:27:18.798Z,95867.69
2022-12-13T23:29:45.264Z,95861.72
2022-12-13T23:32:12.248Z,95871.72
2022-12-13T23:34:38.656Z,95870.56
2022-12-13T23:37:05.006Z,95880.53
2022-12-13T23:39:31.439Z,95879.13
2022-12-13T23:41:59.144Z,95868.81
2022-12-13T23:44:25.530Z,95856.69
2022-12-13T23:46:51.925Z,95852.34
2022-12-13T23:49:19.167Z,95835.31
2022-12-13T23:51:45.498Z,95832.16
2022-12-13T23:54:16.391Z,95841.66
2022-12-13T23:56:43.034Z,95827.44
2022-12-13T23:59:09.368Z,95825.50
